Bergholz, Ohio
Current Conditions -  °F | °C
As of 6:53 PM on Friday 28 Nov 2014 (Local Time) from KHLG Reporting Station
Light Snow Light Snow  
Wind Chill: 17°   Ceiling: 5000
Heat Index: 27°   Visibility: 8mi
Dew Point: 17°   Wind: 12mph
Humidity: 66%   Direction: 210°SSW
Pressure: 30.22"   Gusts: NA
Location:  40.52°N, 80.88°W
Report Text: KHLG 282353Z 21010KT 8SM -SN BKN050 OVC070 M03/M08 A3022 RMK AO2 SNB53 SLP252 P0000 60000 T10281083 11028 21033 58005
Loading
Personal Weather Stations






























Interactive Weather Map New forecast layout! Learn more

10-Day Weather Forecast

Advertisements
Track Severe Weather on mobile